createdAt,value
2018-08-16T00:02:13.471Z,14.90
2018-08-16T00:04:41.696Z,14.60
2018-08-16T00:07:09.910Z,14.40
2018-08-16T00:09:38.148Z,14.40
2018-08-16T00:12:06.528Z,14.50
2018-08-16T00:14:34.733Z,14.50
2018-08-16T00:17:02.971Z,14.20
2018-08-16T00:19:31.161Z,14.00
2018-08-16T00:21:59.411Z,14.00
2018-08-16T00:24:27.638Z,13.90
2018-08-16T00:26:55.857Z,13.70
2018-08-16T00:29:24.082Z,13.70
2018-08-16T00:31:52.379Z,13.90
2018-08-16T00:34:20.551Z,14.30
2018-08-16T00:36:48.790Z,15.10
2018-08-16T00:39:16.961Z,14.80
2018-08-16T00:41:45.127Z,14.40
2018-08-16T00:44:13.276Z,14.80
2018-08-16T00:46:41.493Z,15.00
2018-08-16T00:49:09.780Z,15.20
2018-08-16T00:51:37.981Z,15.60
2018-08-16T00:54:06.300Z,15.10
2018-08-16T00:56:34.762Z,14.50
2018-08-16T00:59:02.998Z,14.70
2018-08-16T01:01:31.234Z,14.60
2018-08-16T01:03:59.452Z,14.10
2018-08-16T01:06:27.606Z,14.20
2018-08-16T01:08:55.757Z,14.60
2018-08-16T01:11:23.937Z,14.80
2018-08-16T01:13:52.521Z,14.20
2018-08-16T01:16:20.765Z,13.90
2018-08-16T01:18:49.393Z,14.30
2018-08-16T01:21:17.574Z,14.30
2018-08-16T01:23:45.783Z,14.60
2018-08-16T01:26:13.957Z,14.80
2018-08-16T01:28:42.147Z,14.50
2018-08-16T01:31:10.351Z,14.90
2018-08-16T01:33:38.565Z,15.00
2018-08-16T01:36:06.791Z,14.10
2018-08-16T01:38:35.011Z,13.90
2018-08-16T01:41:03.244Z,13.90
2018-08-16T01:43:31.438Z,13.70
2018-08-16T01:45:59.623Z,13.50
2018-08-16T01:48:27.842Z,14.10
2018-08-16T01:50:56.006Z,14.40
2018-08-16T01:53:24.174Z,14.60
2018-08-16T01:55:52.364Z,14.80
2018-08-16T01:58:20.579Z,14.90
2018-08-16T02:00:48.771Z,15.00
2018-08-16T02:03:16.998Z,14.60
2018-08-16T02:05:45.197Z,14.40
2018-08-16T02:08:13.456Z,14.90
2018-08-16T02:10:41.685Z,15.20
2018-08-16T02:13:09.902Z,15.00
2018-08-16T02:15:38.074Z,14.40
2018-08-16T02:18:06.859Z,14.40
2018-08-16T02:20:35.008Z,14.50
2018-08-16T02:23:03.178Z,14.00
2018-08-16T02:25:31.322Z,14.30
2018-08-16T02:27:59.506Z,14.60
2018-08-16T02:30:27.667Z,15.20
2018-08-16T02:32:55.820Z,15.30
2018-08-16T02:35:24.033Z,15.30
2018-08-16T02:37:52.196Z,14.60
2018-08-16T02:40:20.413Z,14.00
2018-08-16T02:42:48.582Z,13.50
2018-08-16T02:45:16.725Z,13.50
2018-08-16T02:47:44.958Z,14.00
2018-08-16T02:50:13.130Z,14.50
2018-08-16T02:52:41.713Z,13.90
2018-08-16T02:55:09.910Z,14.10
2018-08-16T02:57:38.159Z,13.70
2018-08-16T03:00:08.182Z,13.50
2018-08-16T03:02:36.439Z,12.90
2018-08-16T03:05:05.229Z,12.80
2018-08-16T03:07:33.503Z,13.10
2018-08-16T03:10:01.739Z,13.00
2018-08-16T03:12:29.964Z,12.80
2018-08-16T03:14:58.163Z,12.50
2018-08-16T03:17:26.374Z,12.40
2018-08-16T03:19:54.642Z,12.50
2018-08-16T03:22:22.851Z,12.50
2018-08-16T03:24:51.067Z,12.80
2018-08-16T03:27:19.258Z,13.10
2018-08-16T03:29:47.474Z,13.50
2018-08-16T03:32:15.662Z,13.90
2018-08-16T03:34:43.874Z,14.30
2018-08-16T03:37:12.100Z,14.10
2018-08-16T03:39:40.294Z,14.10
2018-08-16T03:42:08.483Z,14.20
2018-08-16T03:44:36.657Z,14.10
2018-08-16T03:47:04.814Z,13.70
2018-08-16T03:49:32.982Z,13.60
2018-08-16T03:52:01.173Z,13.40
2018-08-16T03:54:29.479Z,12.80
2018-08-16T03:56:57.892Z,13.50
2018-08-16T03:59:26.181Z,13.80
2018-08-16T04:01:54.523Z,13.90
2018-08-16T04:04:22.914Z,13.30
2018-08-16T04:06:51.369Z,12.60
2018-08-16T04:09:19.719Z,12.50
2018-08-16T04:11:48.038Z,12.60
2018-08-16T04:14:16.559Z,13.00
2018-08-16T04:16:45.013Z,13.40
2018-08-16T04:19:13.362Z,13.70
2018-08-16T04:21:41.758Z,13.90
2018-08-16T04:24:10.135Z,13.10
2018-08-16T04:26:38.465Z,12.60
2018-08-16T04:29:06.866Z,12.20
2018-08-16T04:31:35.250Z,12.40
2018-08-16T04:34:03.611Z,12.60
2018-08-16T04:36:31.913Z,13.40
2018-08-16T04:39:00.268Z,13.00
2018-08-16T04:41:28.663Z,12.50
2018-08-16T04:43:57.034Z,12.40
2018-08-16T04:46:25.448Z,12.60
2018-08-16T04:48:53.823Z,13.20
2018-08-16T04:51:22.255Z,13.10
2018-08-16T04:53:50.675Z,12.90
2018-08-16T04:56:19.015Z,13.00
2018-08-16T04:58:47.400Z,13.30
2018-08-16T05:01:15.816Z,12.90
2018-08-16T05:03:44.258Z,13.40
2018-08-16T05:06:12.739Z,13.30
2018-08-16T05:08:42.278Z,12.90
2018-08-16T05:11:10.697Z,13.00
2018-08-16T05:13:39.067Z,13.10
2018-08-16T05:16:07.433Z,13.60
2018-08-16T05:18:35.941Z,13.60
2018-08-16T05:21:04.342Z,13.80
2018-08-16T05:23:32.685Z,14.60
2018-08-16T05:26:01.075Z,14.80
2018-08-16T05:28:29.562Z,15.00
2018-08-16T05:30:57.930Z,15.00
2018-08-16T05:33:26.294Z,15.20
2018-08-16T05:35:54.651Z,15.30
2018-08-16T05:38:23.103Z,15.30
2018-08-16T05:40:51.503Z,15.40
2018-08-16T05:43:19.963Z,15.30
2018-08-16T05:45:48.363Z,15.50
2018-08-16T05:48:16.808Z,16.00
2018-08-16T05:50:45.226Z,16.40
2018-08-16T05:53:13.527Z,16.90
2018-08-16T05:55:41.935Z,17.40
2018-08-16T05:58:10.338Z,17.90
2018-08-16T06:00:38.733Z,18.40
2018-08-16T06:03:07.073Z,18.80
2018-08-16T06:05:35.532Z,19.10
2018-08-16T06:08:04.008Z,19.30
2018-08-16T06:10:32.318Z,19.10
2018-08-16T06:13:00.836Z,18.40
2018-08-16T06:15:29.330Z,17.30
2018-08-16T06:17:57.699Z,16.60
2018-08-16T06:20:26.067Z,17.00
2018-08-16T06:22:54.469Z,16.60
2018-08-16T06:25:22.912Z,16.50
2018-08-16T06:27:52.119Z,16.30
2018-08-16T06:30:20.680Z,17.10
2018-08-16T06:32:49.039Z,17.90
2018-08-16T06:35:17.411Z,17.50
2018-08-16T06:37:45.755Z,17.40
2018-08-16T06:40:16.779Z,18.60
2018-08-16T06:42:46.047Z,19.20
2018-08-16T06:45:14.487Z,19.10
2018-08-16T06:47:42.855Z,18.90
2018-08-16T06:50:11.220Z,19.50
2018-08-16T06:52:39.627Z,21.10
2018-08-16T06:55:08.887Z,22.20
2018-08-16T06:57:37.223Z,21.50
2018-08-16T07:00:06.464Z,21.20
2018-08-16T07:02:34.883Z,20.40
2018-08-16T07:05:03.291Z,20.60
2018-08-16T07:07:32.408Z,21.90
2018-08-16T07:10:00.798Z,22.80
2018-08-16T07:12:29.242Z,23.40
2018-08-16T07:14:57.638Z,23.90
2018-08-16T07:17:26.050Z,23.90
2018-08-16T07:19:54.478Z,24.30
2018-08-16T07:22:22.868Z,24.10
2018-08-16T07:24:51.406Z,24.70
2018-08-16T07:27:19.691Z,25.00
2018-08-16T07:29:48.150Z,24.10
2018-08-16T07:32:16.575Z,23.90
2018-08-16T07:34:45.036Z,25.20
2018-08-16T07:37:13.488Z,25.70
2018-08-16T07:39:42.033Z,25.60
2018-08-16T07:42:10.575Z,26.70
2018-08-16T07:44:39.024Z,27.30
2018-08-16T07:47:07.378Z,27.40
2018-08-16T07:49:35.842Z,27.30
2018-08-16T07:52:04.553Z,26.90
2018-08-16T07:54:33.007Z,25.80
2018-08-16T07:57:01.497Z,25.80
2018-08-16T07:59:29.944Z,26.20
2018-08-16T08:01:58.263Z,26.20
2018-08-16T08:04:26.660Z,27.10
2018-08-16T08:06:55.086Z,27.00
2018-08-16T08:09:23.692Z,28.10
2018-08-16T08:11:51.987Z,28.40
2018-08-16T08:14:20.363Z,27.20
2018-08-16T08:16:48.718Z,27.10
2018-08-16T08:19:17.163Z,27.40
2018-08-16T08:21:45.641Z,27.60
2018-08-16T08:24:14.240Z,28.60
2018-08-16T08:26:42.809Z,28.80
2018-08-16T08:29:11.260Z,28.70
2018-08-16T08:31:39.825Z,28.70
2018-08-16T08:34:08.294Z,27.80
2018-08-16T08:36:47.906Z,27.80
2018-08-16T08:39:16.302Z,28.20
2018-08-16T08:41:44.722Z,27.80
2018-08-16T08:44:15.658Z,28.50
2018-08-16T08:46:44.137Z,29.40
2018-08-16T08:49:12.544Z,27.90
2018-08-16T08:51:40.917Z,28.20
2018-08-16T08:54:54.426Z,29.60
2018-08-16T08:57:34.969Z,29.50
2018-08-16T09:00:03.376Z,29.90
2018-08-16T09:02:31.838Z,29.60
2018-08-16T09:05:00.376Z,29.70
2018-08-16T09:07:28.818Z,29.00
2018-08-16T09:11:07.987Z,28.40
2018-08-16T09:13:47.705Z,29.30
2018-08-16T09:16:27.258Z,29.90
2018-08-16T09:18:57.057Z,29.20
2018-08-16T09:21:25.610Z,28.40
2018-08-16T09:23:53.873Z,29.40
2018-08-16T09:26:27.910Z,29.90
2018-08-16T09:28:56.123Z,30.30
2018-08-16T09:31:35.924Z,29.40
2018-08-16T09:34:14.330Z,30.10
2018-08-16T09:36:42.544Z,30.20
2018-08-16T09:39:10.765Z,29.50
2018-08-16T09:41:39.074Z,29.40
2018-08-16T09:44:07.377Z,29.80
2018-08-16T09:46:58.295Z,30.30
2018-08-16T09:49:26.830Z,31.00
2018-08-16T09:51:55.222Z,30.60
2018-08-16T09:54:23.485Z,27.90
2018-08-16T09:56:52.267Z,27.70
2018-08-16T09:59:20.534Z,28.10
2018-08-16T10:01:49.055Z,29.20
2018-08-16T10:04:17.297Z,29.90
2018-08-16T10:06:45.898Z,30.00
2018-08-16T10:09:19.266Z,30.50
2018-08-16T10:11:47.872Z,30.00
2018-08-16T10:14:16.343Z,31.10
2018-08-16T10:16:44.565Z,32.00
2018-08-16T10:19:12.797Z,30.60
2018-08-16T10:21:41.126Z,30.50
2018-08-16T10:24:09.365Z,31.20
2018-08-16T10:26:37.643Z,30.60
2018-08-16T10:29:06.591Z,30.50
2018-08-16T10:31:34.818Z,30.60
2018-08-16T10:34:03.134Z,30.80
2018-08-16T10:36:31.393Z,32.20
2018-08-16T10:38:59.632Z,32.00
2018-08-16T10:41:28.310Z,32.40
2018-08-16T10:43:56.580Z,32.40
2018-08-16T10:46:24.818Z,31.70
2018-08-16T10:48:53.035Z,32.40
2018-08-16T10:51:21.257Z,29.80
2018-08-16T10:53:49.510Z,28.80
2018-08-16T10:56:17.755Z,28.50
2018-08-16T10:58:45.943Z,29.40
2018-08-16T11:01:14.275Z,31.10
2018-08-16T11:03:42.447Z,32.40
2018-08-16T11:06:10.712Z,33.00
2018-08-16T11:08:38.982Z,32.90
2018-08-16T11:11:07.387Z,33.60
2018-08-16T11:13:35.671Z,34.40
2018-08-16T11:16:03.893Z,33.40
2018-08-16T11:18:32.189Z,33.60
2018-08-16T11:21:00.435Z,32.00
2018-08-16T11:23:28.870Z,34.00
2018-08-16T11:25:57.187Z,33.60
2018-08-16T11:28:25.732Z,33.20
2018-08-16T11:30:54.161Z,35.30
2018-08-16T11:33:22.607Z,34.30
2018-08-16T11:35:50.983Z,35.10
2018-08-16T11:38:19.479Z,35.90
2018-08-16T11:40:48.129Z,36.00
2018-08-16T11:43:16.344Z,32.20
2018-08-16T11:45:44.671Z,33.50
2018-08-16T11:48:12.949Z,35.20
2018-08-16T11:50:41.335Z,35.90
2018-08-16T11:53:09.979Z,35.40
2018-08-16T11:55:38.376Z,36.80
2018-08-16T11:58:06.710Z,35.10
2018-08-16T12:00:35.173Z,33.30
2018-08-16T12:03:03.650Z,32.80
2018-08-16T12:05:32.069Z,33.60
2018-08-16T12:08:00.474Z,34.60
2018-08-16T12:10:28.997Z,35.20
2018-08-16T12:12:57.371Z,32.40
2018-08-16T12:15:25.920Z,32.20
2018-08-16T12:17:54.332Z,31.30
2018-08-16T12:20:22.707Z,33.90
2018-08-16T12:22:51.185Z,35.00
2018-08-16T12:25:19.543Z,35.80
2018-08-16T12:27:47.886Z,36.20
2018-08-16T12:30:16.215Z,36.00
2018-08-16T12:32:44.578Z,34.80
2018-08-16T12:35:13.016Z,35.90
2018-08-16T12:37:41.310Z,36.20
2018-08-16T12:40:09.684Z,36.30
2018-08-16T12:42:38.169Z,36.90
2018-08-16T12:45:06.792Z,36.70
2018-08-16T12:47:35.304Z,34.40
2018-08-16T12:50:03.727Z,33.50
2018-08-16T12:52:32.061Z,34.10
2018-08-16T12:55:00.524Z,33.10
2018-08-16T12:57:28.942Z,33.60
2018-08-16T12:59:57.311Z,34.20
2018-08-16T13:02:25.753Z,33.90
2018-08-16T13:04:54.313Z,33.80
2018-08-16T13:07:22.799Z,32.50
2018-08-16T13:09:51.162Z,32.70
2018-08-16T13:12:19.506Z,31.60
2018-08-16T13:14:47.941Z,30.90
2018-08-16T13:17:16.301Z,31.50
2018-08-16T13:19:44.895Z,31.90
2018-08-16T13:22:13.261Z,32.50
2018-08-16T13:24:41.579Z,33.00
2018-08-16T13:27:09.944Z,32.60
2018-08-16T13:29:38.261Z,32.00
2018-08-16T13:32:06.919Z,31.00
2018-08-16T13:34:35.429Z,31.70
2018-08-16T13:37:03.922Z,32.20
2018-08-16T13:39:32.298Z,31.70
2018-08-16T13:42:00.661Z,30.20
2018-08-16T13:44:29.183Z,30.10
2018-08-16T13:46:57.543Z,31.20
2018-08-16T13:49:25.976Z,30.70
2018-08-16T13:51:54.278Z,31.20
2018-08-16T13:54:22.671Z,31.10
2018-08-16T13:56:51.072Z,31.20
2018-08-16T13:59:19.436Z,31.30
2018-08-16T14:01:47.917Z,31.80
2018-08-16T14:04:16.378Z,31.00
2018-08-16T14:06:44.911Z,31.50
2018-08-16T14:09:13.387Z,32.00
2018-08-16T14:11:41.895Z,32.00
2018-08-16T14:14:10.240Z,32.10
2018-08-16T14:16:38.726Z,32.20
2018-08-16T14:19:07.236Z,32.10
2018-08-16T14:21:35.695Z,31.80
2018-08-16T14:24:04.130Z,31.50
2018-08-16T14:26:32.558Z,31.60
2018-08-16T14:29:01.039Z,31.10
2018-08-16T14:31:29.471Z,30.20
2018-08-16T14:33:57.903Z,29.80
2018-08-16T14:36:26.291Z,30.10
2018-08-16T14:38:54.679Z,30.90
2018-08-16T14:41:23.100Z,31.40
2018-08-16T14:43:51.515Z,31.00
2018-08-16T14:46:20.044Z,30.20
2018-08-16T14:48:48.363Z,30.30
2018-08-16T14:51:16.729Z,30.90
2018-08-16T14:53:45.068Z,31.30
2018-08-16T14:56:13.689Z,31.20
2018-08-16T14:58:42.164Z,30.70
2018-08-16T15:01:10.619Z,30.20
2018-08-16T15:03:39.036Z,30.30
2018-08-16T15:06:07.695Z,30.50
2018-08-16T15:08:36.107Z,30.70
2018-08-16T15:11:04.715Z,31.00
2018-08-16T15:13:33.102Z,31.20
2018-08-16T15:16:02.572Z,31.40
2018-08-16T15:18:31.078Z,31.30
2018-08-16T15:20:59.455Z,31.10
2018-08-16T15:23:28.095Z,30.70
2018-08-16T15:25:56.520Z,30.60
2018-08-16T15:28:24.804Z,30.70
2018-08-16T15:30:53.187Z,30.40
2018-08-16T15:33:21.542Z,30.10
2018-08-16T15:35:50.014Z,30.30
2018-08-16T15:38:18.523Z,30.20
2018-08-16T15:40:47.035Z,29.60
2018-08-16T15:43:15.429Z,29.50
2018-08-16T15:45:43.783Z,29.60
2018-08-16T15:48:13.215Z,29.60
2018-08-16T15:50:41.877Z,29.70
2018-08-16T15:53:10.647Z,30.00
2018-08-16T15:55:40.551Z,30.10
2018-08-16T15:58:10.075Z,30.30
2018-08-16T16:00:38.535Z,30.20
2018-08-16T16:03:07.053Z,30.30
2018-08-16T16:05:35.629Z,30.20
2018-08-16T16:08:03.973Z,30.20
2018-08-16T16:10:32.419Z,30.20
2018-08-16T16:13:00.894Z,30.20
2018-08-16T16:15:29.307Z,30.10
2018-08-16T16:17:57.840Z,30.00
2018-08-16T16:20:26.420Z,29.80
2018-08-16T16:23:01.454Z,29.80
2018-08-16T16:25:30.094Z,29.80
2018-08-16T16:27:58.474Z,29.60
2018-08-16T16:30:26.892Z,29.50
2018-08-16T16:32:55.276Z,29.30
2018-08-16T16:35:23.655Z,29.30
2018-08-16T16:37:52.107Z,29.30
2018-08-16T16:40:20.575Z,29.50
2018-08-16T16:42:48.946Z,29.50
2018-08-16T16:45:17.343Z,29.70
2018-08-16T16:47:45.638Z,29.60
2018-08-16T16:50:14.108Z,29.20
2018-08-16T16:52:42.717Z,29.20
2018-08-16T16:55:11.249Z,29.10
2018-08-16T16:57:39.744Z,29.00
2018-08-16T17:00:08.979Z,29.00
2018-08-16T17:02:37.392Z,29.20
2018-08-16T17:05:05.963Z,29.10
2018-08-16T17:07:34.459Z,29.10
2018-08-16T17:10:02.951Z,29.30
2018-08-16T17:12:31.389Z,29.40
2018-08-16T17:14:59.804Z,29.30
2018-08-16T17:17:28.322Z,29.00
2018-08-16T17:19:56.781Z,28.70
2018-08-16T17:22:25.205Z,28.70
2018-08-16T17:24:53.555Z,28.90
2018-08-16T17:27:21.989Z,29.10
2018-08-16T17:29:50.338Z,29.10
2018-08-16T17:32:18.695Z,28.80
2018-08-16T17:34:47.148Z,28.60
2018-08-16T17:37:15.520Z,28.50
2018-08-16T17:39:43.965Z,28.40
2018-08-16T17:42:12.492Z,28.30
2018-08-16T17:44:40.941Z,28.30
2018-08-16T17:47:09.533Z,28.30
2018-08-16T17:49:37.841Z,28.30
2018-08-16T17:52:06.288Z,28.20
2018-08-16T17:54:34.735Z,28.20
2018-08-16T17:57:03.180Z,28.40
2018-08-16T17:59:31.601Z,28.50
2018-08-16T18:02:00.040Z,28.60
2018-08-16T18:04:28.461Z,28.30
2018-08-16T18:06:57.047Z,28.20
2018-08-16T18:09:25.490Z,28.30
2018-08-16T18:11:54.009Z,28.30
2018-08-16T18:14:22.593Z,28.20
2018-08-16T18:16:50.947Z,27.90
2018-08-16T18:19:19.426Z,27.80
2018-08-16T18:21:47.930Z,27.60
2018-08-16T18:24:16.498Z,27.30
2018-08-16T18:26:44.874Z,27.00
2018-08-16T18:29:13.285Z,26.80
2018-08-16T18:31:41.678Z,26.70
2018-08-16T18:34:10.145Z,26.80
2018-08-16T18:36:38.735Z,26.90
2018-08-16T18:39:08.341Z,26.80
2018-08-16T18:41:37.009Z,26.50
2018-08-16T18:44:05.561Z,26.40
2018-08-16T18:46:33.960Z,26.40
2018-08-16T18:49:02.246Z,26.20
2018-08-16T18:51:30.624Z,25.90
2018-08-16T18:53:59.076Z,25.50
2018-08-16T18:56:27.391Z,25.30
2018-08-16T18:58:55.743Z,25.30
2018-08-16T19:01:24.083Z,25.40
2018-08-16T19:03:52.480Z,25.50
2018-08-16T19:06:20.898Z,25.20
2018-08-16T19:08:49.313Z,25.00
2018-08-16T19:11:17.769Z,25.00
2018-08-16T19:13:46.159Z,24.50
2018-08-16T19:16:14.540Z,24.60
2018-08-16T19:18:42.962Z,24.20
2018-08-16T19:21:11.310Z,24.00
2018-08-16T19:23:39.715Z,24.40
2018-08-16T19:26:08.132Z,24.40
2018-08-16T19:28:36.475Z,24.40
2018-08-16T19:31:04.858Z,24.20
2018-08-16T19:33:33.304Z,24.10
2018-08-16T19:36:01.793Z,24.00
2018-08-16T19:38:30.177Z,23.80
2018-08-16T19:40:58.518Z,23.90
2018-08-16T19:43:26.907Z,23.80
2018-08-16T19:45:55.231Z,23.70
2018-08-16T19:48:23.638Z,23.10
2018-08-16T19:50:51.975Z,22.90
2018-08-16T19:53:20.319Z,22.80
2018-08-16T19:55:48.687Z,22.80
2018-08-16T19:58:17.111Z,22.50
2018-08-16T20:00:45.489Z,22.30
2018-08-16T20:03:13.852Z,22.10
2018-08-16T20:05:42.153Z,22.50
2018-08-16T20:08:10.519Z,22.40
2018-08-16T20:10:38.869Z,22.10
2018-08-16T20:13:07.286Z,21.90
2018-08-16T20:15:35.686Z,21.90
2018-08-16T20:18:04.143Z,22.10
2018-08-16T20:20:32.501Z,21.90
2018-08-16T20:23:00.940Z,22.10
2018-08-16T20:25:29.636Z,22.10
2018-08-16T20:27:58.081Z,21.60
2018-08-16T20:30:26.483Z,21.40
2018-08-16T20:32:54.922Z,21.30
2018-08-16T20:35:23.606Z,21.30
2018-08-16T20:37:52.075Z,21.10
2018-08-16T20:40:20.439Z,21.10
2018-08-16T20:42:48.854Z,21.00
2018-08-16T20:45:17.294Z,21.00
2018-08-16T20:47:45.686Z,21.00
2018-08-16T20:50:14.071Z,20.90
2018-08-16T20:52:42.459Z,20.70
2018-08-16T20:55:10.883Z,20.60
2018-08-16T20:57:39.355Z,20.60
2018-08-16T21:00:09.670Z,20.50
2018-08-16T21:02:38.990Z,20.40
2018-08-16T21:05:08.167Z,20.30
2018-08-16T21:07:36.661Z,20.40
2018-08-16T21:10:06.157Z,20.20
2018-08-16T21:12:34.775Z,20.10
2018-08-16T21:15:03.388Z,20.30
2018-08-16T21:17:31.866Z,20.40
2018-08-16T21:20:00.453Z,20.70
2018-08-16T21:22:28.633Z,20.90
2018-08-16T21:24:56.865Z,21.20
2018-08-16T21:27:25.352Z,21.10
2018-08-16T21:29:53.585Z,20.60
2018-08-16T21:32:21.751Z,20.20
2018-08-16T21:34:49.964Z,20.10
2018-08-16T21:37:18.153Z,20.10
2018-08-16T21:39:46.363Z,20.50
2018-08-16T21:42:14.534Z,20.10
2018-08-16T21:44:42.725Z,19.80
2018-08-16T21:47:10.867Z,19.70
2018-08-16T21:49:39.079Z,19.50
2018-08-16T21:52:07.277Z,19.60
2018-08-16T21:54:35.430Z,19.90
2018-08-16T21:57:03.577Z,20.10
2018-08-16T21:59:31.776Z,19.90
2018-08-16T22:02:00.002Z,19.60
2018-08-16T22:04:28.211Z,19.40
2018-08-16T22:07:02.326Z,19.40
2018-08-16T22:09:30.550Z,19.40
2018-08-16T22:11:58.746Z,19.50
2018-08-16T22:14:26.987Z,19.40
2018-08-16T22:16:55.206Z,19.30
2018-08-16T22:19:23.422Z,19.20
2018-08-16T22:21:51.679Z,19.20
2018-08-16T22:24:20.008Z,19.10
2018-08-16T22:26:48.207Z,19.20
2018-08-16T22:29:16.462Z,19.30
2018-08-16T22:31:44.683Z,18.90
2018-08-16T22:34:12.841Z,18.80
2018-08-16T22:36:41.070Z,18.60
2018-08-16T22:39:11.162Z,18.60
2018-08-16T22:41:39.500Z,18.70
2018-08-16T22:44:07.846Z,19.20
2018-08-16T22:46:36.091Z,19.60
2018-08-16T22:49:04.293Z,19.90
2018-08-16T22:51:32.576Z,19.90
2018-08-16T22:54:00.790Z,19.70
2018-08-16T22:56:28.981Z,19.30
2018-08-16T22:58:57.228Z,18.90
2018-08-16T23:01:25.437Z,19.40
2018-08-16T23:03:53.694Z,19.60
2018-08-16T23:06:21.877Z,19.80
2018-08-16T23:08:50.127Z,19.20
2018-08-16T23:11:18.319Z,18.70
2018-08-16T23:13:46.544Z,18.60
2018-08-16T23:16:14.709Z,19.20
2018-08-16T23:18:42.882Z,18.90
2018-08-16T23:21:11.039Z,18.60
2018-08-16T23:23:39.188Z,18.80
2018-08-16T23:26:07.435Z,19.10
2018-08-16T23:28:35.642Z,18.40
2018-08-16T23:31:03.874Z,18.20
2018-08-16T23:33:32.373Z,18.10
2018-08-16T23:36:00.554Z,18.00
2018-08-16T23:38:28.749Z,18.30
2018-08-16T23:40:57.048Z,18.90
2018-08-16T23:43:25.256Z,19.20
2018-08-16T23:45:53.472Z,19.40
2018-08-16T23:48:27.794Z,19.00
2018-08-16T23:50:56.041Z,18.90
2018-08-16T23:53:24.243Z,18.30
2018-08-16T23:55:52.532Z,18.40
2018-08-16T23:58:20.843Z,18.60
